Time,TemperatureF,DewpointF,PressureIn,WindDirection,WindDirectionDegrees,WindSpeedMPH,WindSpeedGustMPH,Humidity,HourlyPrecipIn,Conditions,Clouds,dailyrainin,SoftwareType,DateUTC
2013-02-22 00:11:00,71.4,70.8,29.66,SW,225,2.7,-999.0,98,-99.99,,,0.00,Acu-Link.com,2013-02-22 06:11:00,
2013-02-22 00:26:00,71.4,70.8,29.66,SW,225,2.7,-999.0,98,-99.99,,,0.00,Acu-Link.com,2013-02-22 06:26:00,
2013-02-22 00:41:00,71.2,70.6,29.65,SW,225,2.7,-999.0,98,-99.99,,,0.00,Acu-Link.com,2013-02-22 06:41:00,
2013-02-22 00:57:00,71.1,70.5,29.66,WNW,292,3.8,-999.0,98,-99.99,,,0.00,Acu-Link.com,2013-02-22 06:57:00,
2013-02-22 01:12:00,67.5,66.9,29.67,NNE,22,4.7,-999.0,98,-99.99,,,0.00,Acu-Link.com,2013-02-22 07:12:00,
2013-02-22 01:27:00,65.8,65.3,29.68,East,90,1.6,-999.0,98,-99.99,,,0.00,Acu-Link.com,2013-02-22 07:27:00,
2013-02-22 01:42:00,64.8,64.2,29.68,NNW,337,1.1,-999.0,98,-99.99,,,0.00,Acu-Link.com,2013-02-22 07:42:00,
2013-02-22 01:58:00,64.0,63.5,29.69,NNW,337,2.7,-999.0,98,-99.99,,,0.00,Acu-Link.com,2013-02-22 07:58:00,
2013-02-22 02:13:00,63.5,62.9,29.68,NE,45,2.2,-999.0,98,-99.99,,,0.00,Acu-Link.com,2013-02-22 08:13:00,
2013-02-22 02:28:00,63.1,62.6,29.69,NE,45,2.2,-999.0,98,-99.99,,,0.00,Acu-Link.com,2013-02-22 08:28:00,
2013-02-22 02:44:00,62.6,62.0,29.68,ENE,67,5.1,-999.0,98,-99.99,,,0.00,Acu-Link.com,2013-02-22 08:44:00,
2013-02-22 02:59:00,62.4,61.8,29.68,East,90,1.6,-999.0,98,-99.99,,,0.00,Acu-Link.com,2013-02-22 08:59:00,
2013-02-22 03:20:00,62.4,61.8,29.68,East,90,3.8,-999.0,98,-99.99,,,0.00,Acu-Link.com,2013-02-22 09:20:00,
2013-02-22 03:35:00,62.1,61.5,29.67,ESE,112,2.7,-999.0,98,-99.99,,,0.00,Acu-Link.com,2013-02-22 09:35:00,
2013-02-22 03:50:00,62.2,61.7,29.67,East,90,1.6,-999.0,98,-99.99,,,0.00,Acu-Link.com,2013-02-22 09:50:00,
2013-02-22 04:05:00,62.4,61.8,29.67,ESE,112,2.7,-999.0,98,-99.99,,,0.00,Acu-Link.com,2013-02-22 10:05:00,
2013-02-22 04:20:00,62.4,61.8,29.69,NE,45,2.7,-999.0,98,-99.99,,,0.00,Acu-Link.com,2013-02-22 10:20:00,
2013-02-22 04:35:00,62.2,61.7,29.69,NNW,337,3.1,-999.0,98,-99.99,,,0.00,Acu-Link.com,2013-02-22 10:35:00,
2013-02-22 04:51:00,62.1,61.5,29.70,NNE,22,3.8,-999.0,98,-99.99,,,0.00,Acu-Link.com,2013-02-22 10:51:00,
2013-02-22 05:06:00,61.9,61.3,29.72,NE,45,3.1,-999.0,98,-99.99,,,0.00,Acu-Link.com,2013-02-22 11:06:00,
2013-02-22 05:21:00,61.7,61.1,29.71,East,90,2.7,-999.0,98,-99.99,,,0.00,Acu-Link.com,2013-02-22 11:21:00,
2013-02-22 05:36:00,61.0,60.4,29.72,ESE,112,2.7,-999.0,98,-99.99,,,0.00,Acu-Link.com,2013-02-22 11:36:00,
2013-02-22 05:52:00,60.6,60.1,29.71,NE,45,3.8,-999.0,98,-99.99,,,0.00,Acu-Link.com,2013-02-22 11:52:00,
2013-02-22 06:07:00,60.3,59.7,29.71,ENE,67,2.7,-999.0,98,-99.99,,,0.00,Acu-Link.com,2013-02-22 12:07:00,
2013-02-22 06:22:00,60.1,59.5,29.72,NE,45,3.1,-999.0,98,-99.99,,,0.00,Acu-Link.com,2013-02-22 12:22:00,
2013-02-22 06:37:00,60.1,59.5,29.73,NNE,22,2.2,-999.0,98,-99.99,,,0.00,Acu-Link.com,2013-02-22 12:37:00,
2013-02-22 06:52:00,60.3,59.7,29.74,NE,45,1.6,-999.0,98,-99.99,,,0.00,Acu-Link.com,2013-02-22 12:52:00,
2013-02-22 07:08:00,60.1,59.5,29.75,NNE,22,1.1,-999.0,98,-99.99,,,0.00,Acu-Link.com,2013-02-22 13:08:00,
2013-02-22 07:23:00,60.6,60.1,29.76,NE,45,3.8,-999.0,98,-99.99,,,0.00,Acu-Link.com,2013-02-22 13:23:00,
2013-02-22 07:38:00,61.7,61.1,29.76,ENE,67,2.7,-999.0,98,-99.99,,,0.00,Acu-Link.com,2013-02-22 13:38:00,
2013-02-22 07:53:00,62.8,62.2,29.76,East,90,3.8,-999.0,98,-99.99,,,0.00,Acu-Link.com,2013-02-22 13:53:00,
2013-02-22 08:08:00,63.1,62.6,29.77,East,90,7.4,-999.0,98,-99.99,,,0.00,Acu-Link.com,2013-02-22 14:08:00,
2013-02-22 08:23:00,64.0,63.5,29.77,ENE,67,5.1,-999.0,98,-99.99,,,0.00,Acu-Link.com,2013-02-22 14:23:00,
2013-02-22 08:39:00,64.2,63.6,29.77,East,90,4.7,-999.0,98,-99.99,,,0.00,Acu-Link.com,2013-02-22 14:39:00,
2013-02-22 08:54:00,64.2,63.6,29.78,ESE,112,6.3,-999.0,98,-99.99,,,0.00,Acu-Link.com,2013-02-22 14:54:00,
2013-02-22 09:09:00,64.2,63.6,29.78,ESE,112,2.7,-999.0,98,-99.99,,,0.00,Acu-Link.com,2013-02-22 15:09:00,
2013-02-22 09:25:00,64.4,63.8,29.78,NE,45,5.8,-999.0,98,-99.99,,,0.00,Acu-Link.com,2013-02-22 15:25:00,
2013-02-22 09:40:00,64.9,64.4,29.78,SSE,157,1.1,-999.0,98,-99.99,,,0.00,Acu-Link.com,2013-02-22 15:40:00,
2013-02-22 09:55:00,64.8,64.2,29.78,East,90,2.7,-999.0,98,-99.99,,,0.00,Acu-Link.com,2013-02-22 15:55:00,
2013-02-22 10:10:00,64.9,64.4,29.79,NE,45,3.1,-999.0,98,-99.99,,,0.00,Acu-Link.com,2013-02-22 16:10:00,
2013-02-22 10:25:00,65.1,64.5,29.78,West,270,2.2,-999.0,98,-99.99,,,0.00,Acu-Link.com,2013-02-22 16:25:00,
2013-02-22 10:41:00,64.4,63.8,29.79,East,90,4.7,-999.0,98,-99.99,,,0.00,Acu-Link.com,2013-02-22 16:41:00,
2013-02-22 10:56:00,64.4,63.8,29.78,East,90,5.1,-999.0,98,-99.99,,,0.00,Acu-Link.com,2013-02-22 16:56:00,
2013-02-22 11:11:00,62.6,62.0,29.78,WNW,292,1.6,-999.0,98,-99.99,,,0.01,Acu-Link.com,2013-02-22 17:11:00,
2013-02-22 11:26:00,62.4,61.8,29.79,North,0,0.0,-999.0,98,-99.99,,,0.01,Acu-Link.com,2013-02-22 17:26:00,
2013-02-22 11:41:00,63.7,63.1,29.79,East,90,5.8,-999.0,98,-99.99,,,0.01,Acu-Link.com,2013-02-22 17:41:00,
2013-02-22 11:57:00,64.9,64.4,29.76,East,90,2.2,-999.0,98,-99.99,,,0.01,Acu-Link.com,2013-02-22 17:57:00,
2013-02-22 12:12:00,65.7,65.1,29.77,ESE,112,2.7,-999.0,98,-99.99,,,0.01,Acu-Link.com,2013-02-22 18:12:00,
2013-02-22 12:27:00,66.6,66.0,29.76,NE,45,4.3,-999.0,98,-99.99,,,0.01,Acu-Link.com,2013-02-22 18:27:00,
2013-02-22 12:42:00,67.5,65.4,29.74,East,90,5.1,-999.0,93,-99.99,,,0.01,Acu-Link.com,2013-02-22 18:42:00,
2013-02-22 12:58:00,67.6,61.2,29.73,NE,45,6.3,-999.0,80,-99.99,,,0.01,Acu-Link.com,2013-02-22 18:58:00,
2013-02-22 13:13:00,67.3,59.8,29.73,ESE,112,8.3,-999.0,77,-99.99,,,0.01,Acu-Link.com,2013-02-22 19:13:00,
2013-02-22 13:28:00,68.5,61.0,29.71,NE,45,7.8,-999.0,77,-99.99,,,0.01,Acu-Link.com,2013-02-22 19:28:00,
2013-02-22 13:43:00,67.5,59.3,29.72,East,90,5.1,-999.0,75,-99.99,,,0.01,Acu-Link.com,2013-02-22 19:43:00,
2013-02-22 13:59:00,66.9,60.2,29.72,East,90,3.8,-999.0,79,-99.99,,,0.01,Acu-Link.com,2013-02-22 19:59:00,
2013-02-22 14:14:00,66.0,63.6,29.72,East,90,2.7,-999.0,92,-99.99,,,0.01,Acu-Link.com,2013-02-22 20:14:00,
2013-02-22 14:29:00,66.0,60.7,29.72,NNE,22,4.7,-999.0,83,-99.99,,,0.01,Acu-Link.com,2013-02-22 20:29:00,
2013-02-22 14:45:00,65.1,64.5,29.72,NE,45,5.8,-999.0,98,-99.99,,,0.01,Acu-Link.com,2013-02-22 20:45:00,
2013-02-22 15:00:00,64.8,64.2,29.71,East,90,1.1,-999.0,98,-99.99,,,0.01,Acu-Link.com,2013-02-22 21:00:00,
2013-02-22 15:15:00,64.9,64.4,29.71,NE,45,2.7,-999.0,98,-99.99,,,0.01,Acu-Link.com,2013-02-22 21:15:00,
2013-02-22 15:30:00,64.4,63.8,29.71,NE,45,2.7,-999.0,98,-99.99,,,0.01,Acu-Link.com,2013-02-22 21:30:00,
2013-02-22 15:46:00,62.8,62.2,29.70,NNE,22,2.2,-999.0,98,-99.99,,,0.01,Acu-Link.com,2013-02-22 21:46:00,
2013-02-22 16:01:00,61.9,61.3,29.71,NNW,337,2.2,-999.0,98,-99.99,,,0.01,Acu-Link.com,2013-02-22 22:01:00,
2013-02-22 16:16:00,61.3,60.8,29.71,NE,45,3.8,-999.0,98,-99.99,,,0.01,Acu-Link.com,2013-02-22 22:16:00,
2013-02-22 16:31:00,61.3,60.8,29.70,ENE,67,5.1,-999.0,98,-99.99,,,0.01,Acu-Link.com,2013-02-22 22:31:00,
2013-02-22 16:47:00,61.2,60.6,29.70,NE,45,4.3,-999.0,98,-99.99,,,0.01,Acu-Link.com,2013-02-22 22:47:00,
2013-02-22 17:02:00,61.0,60.4,29.70,ENE,67,3.8,-999.0,98,-99.99,,,0.01,Acu-Link.com,2013-02-22 23:02:00,
2013-02-22 17:17:00,61.0,60.4,29.69,NNE,22,4.3,-999.0,98,-99.99,,,0.01,Acu-Link.com,2013-02-22 23:17:00,
2013-02-22 17:32:00,60.6,60.1,29.71,NE,45,2.2,-999.0,98,-99.99,,,0.01,Acu-Link.com,2013-02-22 23:32:00,
2013-02-22 17:47:00,60.8,60.2,29.71,ENE,67,3.8,-999.0,98,-99.99,,,0.01,Acu-Link.com,2013-02-22 23:47:00,
2013-02-22 18:03:00,60.6,60.1,29.71,North,0,5.1,-999.0,98,-99.99,,,0.01,Acu-Link.com,2013-02-23 00:03:00,
2013-02-22 18:18:00,60.6,60.1,29.71,NNE,22,3.8,-999.0,98,-99.99,,,0.01,Acu-Link.com,2013-02-23 00:18:00,
2013-02-22 18:33:00,60.3,59.7,29.71,ENE,67,7.8,-999.0,98,-99.99,,,0.01,Acu-Link.com,2013-02-23 00:33:00,
2013-02-22 18:49:00,60.1,59.5,29.71,NE,45,3.8,-999.0,98,-99.99,,,0.01,Acu-Link.com,2013-02-23 00:49:00,
2013-02-22 19:04:00,60.1,59.5,29.72,NE,45,7.4,-999.0,98,-99.99,,,0.01,Acu-Link.com,2013-02-23 01:04:00,
2013-02-22 19:19:00,60.1,59.5,29.71,South,180,4.7,-999.0,98,-99.99,,,0.01,Acu-Link.com,2013-02-23 01:19:00,
2013-02-22 19:34:00,59.9,59.3,29.71,East,90,2.7,-999.0,98,-99.99,,,0.01,Acu-Link.com,2013-02-23 01:34:00,
2013-02-22 19:49:00,58.1,57.5,29.72,WNW,292,4.3,-999.0,98,-99.99,,,0.12,Acu-Link.com,2013-02-23 01:49:00,
2013-02-22 20:04:00,57.4,56.8,29.71,NNE,22,2.7,-999.0,98,-99.99,,,0.14,Acu-Link.com,2013-02-23 02:04:00,
2013-02-22 20:20:00,57.2,56.6,29.74,East,90,4.3,-999.0,98,-99.99,,,0.14,Acu-Link.com,2013-02-23 02:20:00,
2013-02-22 20:35:00,56.5,55.9,29.76,East,90,2.2,-999.0,98,-99.99,,,0.40,Acu-Link.com,2013-02-23 02:35:00,
2013-02-22 20:50:00,56.1,55.6,29.74,ENE,67,5.8,-999.0,98,-99.99,,,0.41,Acu-Link.com,2013-02-23 02:50:00,
2013-02-22 21:05:00,55.6,55.0,29.73,NE,45,3.8,-999.0,98,-99.99,,,0.41,Acu-Link.com,2013-02-23 03:05:00,
2013-02-22 21:21:00,55.2,54.7,29.75,NE,45,4.7,-999.0,98,-99.99,,,0.59,Acu-Link.com,2013-02-23 03:21:00,
2013-02-22 21:36:00,54.9,54.3,29.75,NE,45,2.2,-999.0,98,-99.99,,,0.59,Acu-Link.com,2013-02-23 03:36:00,
2013-02-22 21:51:00,54.7,54.1,29.76,NNE,22,3.1,-999.0,98,-99.99,,,0.59,Acu-Link.com,2013-02-23 03:51:00,
2013-02-22 22:07:00,54.7,54.1,29.75,North,0,7.4,-999.0,98,-99.99,,,0.59,Acu-Link.com,2013-02-23 04:07:00,
2013-02-22 22:22:00,54.5,53.9,29.74,East,90,4.7,-999.0,98,-99.99,,,0.59,Acu-Link.com,2013-02-23 04:22:00,
2013-02-22 22:37:00,54.3,53.8,29.75,NNE,22,6.3,-999.0,98,-99.99,,,0.59,Acu-Link.com,2013-02-23 04:37:00,
2013-02-22 22:52:00,54.5,53.9,29.74,ESE,112,2.2,-999.0,98,-99.99,,,0.59,Acu-Link.com,2013-02-23 04:52:00,
2013-02-22 23:08:00,54.5,53.9,29.74,NE,45,5.8,-999.0,98,-99.99,,,0.59,Acu-Link.com,2013-02-23 05:08:00,
2013-02-22 23:23:00,54.5,53.9,29.73,North,0,0.0,-999.0,98,-99.99,,,0.59,Acu-Link.com,2013-02-23 05:23:00,
2013-02-22 23:38:00,54.5,53.9,29.73,NE,45,4.3,-999.0,98,-99.99,,,0.59,Acu-Link.com,2013-02-23 05:38:00,
2013-02-22 23:53:00,54.5,53.9,29.73,NNE,22,8.3,-999.0,98,-99.99,,,0.59,Acu-Link.com,2013-02-23 05:53:00,